Menlow, Texas
Current Conditions -  °F | °C
As of 12:55 AM on Sunday 26 Oct 2014 (Local Time) from KINJ Reporting Station
Clear Clear  
Wind Chill: 70°   Ceiling: Unl
Heat Index: 70°   Visibility: 10mi
Dew Point: 59°   Wind: 7mph
Humidity: 67%   Direction: 170°S
Pressure: 30.06"   Gusts: NA
Location:  31.908°N, 97.0524°W
Report Text: KINJ 260555Z AUTO 17006KT 10SM CLR 21/15 A3006 RMK AO2 T02120148 10270 20212 403110165
Loading
Personal Weather Stations






























Interactive Weather Map
Tropical Storm Tracking
New forecast layout! Learn more

10-Day Weather Forecast

Advertisements
Track Severe Weather on mobile